Time;durP1;ratioP1;P1;durP2;ratioP2;P2;SDS_P1;SDS_P2;PMS_P1;PMS_P2;Temp;Humidity;BMP_temperature;BMP_pressure;BME280_temperature;BME280_humidity;BME280_pressure;Samples;Min_cycle;Max_cycle;Signal;HPM_P1;HPM_P2
2021/07/20 00:00:12;;;;;;;;;;;24.50;71.70;;;;;;5133201;27;20295;-58
2021/07/20 00:02:40;;;;;;;;;;;24.50;71.80;;;;;;5134357;27;19924;-58
2021/07/20 00:05:10;;;;;;;;;;;24.40;71.70;;;;;;5133140;27;19924;-58
2021/07/20 00:07:38;;;;;;;;;;;24.40;71.70;;;;;;5134353;27;19972;-58
2021/07/20 00:10:10;;;;;;;;;;;24.50;71.90;;;;;;5133039;27;19976;-58
2021/07/20 00:12:37;;;;;;;;;;;24.50;71.80;;;;;;5116519;27;19923;-58
2021/07/20 00:15:05;;;;;;;;;;;24.50;71.80;;;;;;5132577;27;19923;-58
2021/07/20 00:17:33;;;;;;;;;;;24.50;71.80;;;;;;5134300;27;19966;-59
2021/07/20 00:20:01;;;;;;;;;;;24.50;71.80;;;;;;5133336;27;20355;-58
2021/07/20 00:22:28;;;;;;;;;;;24.50;71.80;;;;;;5134301;27;20375;-58
2021/07/20 00:24:55;;;;;;;;;;;24.50;71.80;;;;;;5131288;27;19932;-58
2021/07/20 00:27:21;;;;;;;;;;;24.50;71.90;;;;;;5111854;27;19923;-58
2021/07/20 00:29:48;;;;;;;;;;;24.40;71.90;;;;;;5133701;27;19976;-58
2021/07/20 00:32:15;;;;;;;;;;;24.50;72.10;;;;;;5133623;27;19960;-58
2021/07/20 00:34:42;;;;;;;;;;;24.40;72.00;;;;;;5132717;27;19927;-58
2021/07/20 00:37:09;;;;;;;;;;;24.40;72.00;;;;;;5111789;27;19931;-58
2021/07/20 00:39:37;;;;;;;;;;;24.50;71.60;;;;;;5121259;27;20015;-58
2021/07/20 00:42:04;;;;;;;;;;;24.50;71.50;;;;;;5125378;27;19976;-58
2021/07/20 00:44:31;;;;;;;;;;;24.40;71.50;;;;;;5123564;27;19924;-58
2021/07/20 00:46:59;;;;;;;;;;;24.50;71.40;;;;;;5117026;28;19941;-58
2021/07/20 00:49:26;;;;;;;;;;;24.40;71.40;;;;;;5123596;27;19970;-58
2021/07/20 00:51:53;;;;;;;;;;;24.40;71.40;;;;;;5133861;27;20276;-58
2021/07/20 00:54:20;;;;;;;;;;;24.40;71.20;;;;;;5131845;27;19923;-58
2021/07/20 00:56:47;;;;;;;;;;;24.40;71.30;;;;;;5130845;28;19924;-58
2021/07/20 00:59:14;;;;;;;;;;;24.40;71.20;;;;;;5132479;28;20263;-58
2021/07/20 01:01:41;;;;;;;;;;;24.40;71.20;;;;;;5133340;28;19924;-58
2021/07/20 01:04:09;;;;;;;;;;;24.40;71.00;;;;;;5132222;28;19923;-58
2021/07/20 01:06:36;;;;;;;;;;;24.40;71.00;;;;;;5133322;28;20004;-58
2021/07/20 01:09:04;;;;;;;;;;;24.40;70.80;;;;;;5131536;28;20018;-58
2021/07/20 01:11:32;;;;;;;;;;;24.40;70.50;;;;;;5132029;28;19972;-58
2021/07/20 01:14:01;;;;;;;;;;;24.40;70.60;;;;;;5132363;28;19973;-58
2021/07/20 01:16:29;;;;;;;;;;;24.50;70.60;;;;;;5132037;28;19927;-58
2021/07/20 01:18:56;;;;;;;;;;;24.40;70.50;;;;;;5133162;28;19923;-58
2021/07/20 01:21:26;;;;;;;;;;;24.40;70.60;;;;;;5115527;28;20321;-58
2021/07/20 01:23:54;;;;;;;;;;;24.40;70.60;;;;;;5131917;28;19927;-58
2021/07/20 01:26:21;;;;;;;;;;;24.40;70.70;;;;;;5133161;28;19923;-58
2021/07/20 01:28:48;;;;;;;;;;;24.50;70.60;;;;;;5131778;28;19923;-58
2021/07/20 01:31:19;;;;;;;;;;;24.50;70.70;;;;;;5131756;28;19924;-58
2021/07/20 01:33:48;;;;;;;;;;;24.50;70.50;;;;;;5132007;28;20284;-58
2021/07/20 01:36:16;;;;;;;;;;;24.50;70.20;;;;;;5122681;28;19971;-58
2021/07/20 01:38:44;;;;;;;;;;;24.50;70.20;;;;;;5115137;28;19989;-58
2021/07/20 01:41:13;;;;;;;;;;;24.50;69.60;;;;;;5125762;28;20286;-58
2021/07/20 01:43:42;;;;;;;;;;;24.40;69.60;;;;;;5123368;28;20358;-58
2021/07/20 01:46:10;;;;;;;;;;;24.40;69.60;;;;;;5123508;28;19973;-58
2021/07/20 01:48:38;;;;;;;;;;;24.40;69.60;;;;;;5131596;28;19923;-58
2021/07/20 01:51:06;;;;;;;;;;;24.40;69.70;;;;;;5132105;28;20010;-58
2021/07/20 01:53:33;;;;;;;;;;;24.40;69.70;;;;;;5132724;28;20411;-58
2021/07/20 01:56:01;;;;;;;;;;;24.40;69.40;;;;;;5132923;28;19923;-58
2021/07/20 01:58:28;;;;;;;;;;;24.40;69.50;;;;;;5132628;28;19971;-58
2021/07/20 02:00:59;;;;;;;;;;;24.40;69.40;;;;;;5132050;27;20019;-58
2021/07/20 02:04:18;;;;;;;;;;;24.40;69.30;;;;;;5136755;27;19923;-58
2021/07/20 02:09:11;;;;;;;;;;;24.30;69.00;;;;;;5134031;27;20046;-58
2021/07/20 02:11:39;;;;;;;;;;;24.30;69.20;;;;;;5135701;27;19949;-58
2021/07/20 02:14:10;;;;;;;;;;;24.30;68.90;;;;;;5136407;27;19923;-58
2021/07/20 02:16:43;;;;;;;;;;;24.30;68.80;;;;;;5133635;27;19984;-58
2021/07/20 02:19:13;;;;;;;;;;;24.30;69.00;;;;;;5136331;27;19931;-58
2021/07/20 02:21:42;;;;;;;;;;;24.30;69.00;;;;;;5135142;27;19946;-58
2021/07/20 02:24:09;;;;;;;;;;;24.30;69.60;;;;;;5136580;27;19924;-58
2021/07/20 02:26:39;;;;;;;;;;;24.30;68.90;;;;;;5136061;27;19923;-58
2021/07/20 02:29:07;;;;;;;;;;;24.30;68.90;;;;;;5135083;27;19923;-58
2021/07/20 02:31:35;;;;;;;;;;;24.30;68.90;;;;;;5133760;27;19924;-59
2021/07/20 02:34:03;;;;;;;;;;;24.20;68.70;;;;;;5119265;27;19997;-58
2021/07/20 02:36:30;;;;;;;;;;;24.20;68.70;;;;;;5117007;27;20399;-58
2021/07/20 02:38:57;;;;;;;;;;;24.20;68.80;;;;;;5135943;27;19923;-58
2021/07/20 02:41:26;;;;;;;;;;;24.20;68.90;;;;;;5116571;27;19982;-57
2021/07/20 02:43:53;;;;;;;;;;;24.20;68.80;;;;;;5116348;27;20426;-58
2021/07/20 02:46:20;;;;;;;;;;;24.20;68.90;;;;;;5136256;27;19923;-58
2021/07/20 02:48:49;;;;;;;;;;;24.10;68.80;;;;;;5135926;27;20014;-58
2021/07/20 02:51:19;;;;;;;;;;;24.10;68.90;;;;;;5134969;27;20006;-58
2021/07/20 02:53:48;;;;;;;;;;;24.20;69.00;;;;;;5135341;27;19965;-58
2021/07/20 02:56:15;;;;;;;;;;;24.20;69.00;;;;;;5134466;27;20267;-58
2021/07/20 02:58:44;;;;;;;;;;;24.20;69.00;;;;;;5134237;27;19970;-58
2021/07/20 03:01:12;;;;;;;;;;;24.10;68.60;;;;;;5134318;27;19937;-58
2021/07/20 03:03:39;;;;;;;;;;;24.10;68.80;;;;;;5132771;27;19924;-58
2021/07/20 03:06:08;;;;;;;;;;;24.10;68.80;;;;;;5135359;27;19924;-58
2021/07/20 03:08:37;;;;;;;;;;;24.10;68.70;;;;;;5134441;27;19989;-58
2021/07/20 03:11:05;;;;;;;;;;;24.10;68.80;;;;;;5135298;27;19962;-58
2021/07/20 03:13:34;;;;;;;;;;;24.10;68.80;;;;;;5133755;27;19930;-58
2021/07/20 03:16:04;;;;;;;;;;;24.10;68.40;;;;;;5107351;28;19931;-58
2021/07/20 03:18:32;;;;;;;;;;;24.10;68.30;;;;;;5118212;27;20383;-58
2021/07/20 03:20:59;;;;;;;;;;;24.10;68.10;;;;;;5126598;27;19924;-58
2021/07/20 03:23:26;;;;;;;;;;;24.10;68.20;;;;;;5133930;27;19930;-58
2021/07/20 03:25:57;;;;;;;;;;;24.10;68.20;;;;;;5135008;27;19971;-58
2021/07/20 03:28:25;;;;;;;;;;;24.10;68.30;;;;;;5115588;27;19970;-58
2021/07/20 03:30:52;;;;;;;;;;;24.00;67.30;;;;;;5128590;27;19924;-58
2021/07/20 03:33:21;;;;;;;;;;;24.00;67.50;;;;;;5120330;27;19923;-59
2021/07/20 03:35:49;;;;;;;;;;;24.00;67.50;;;;;;5133801;27;20290;-57
2021/07/20 03:38:20;;;;;;;;;;;24.00;67.80;;;;;;5133452;27;20375;-57
2021/07/20 03:40:51;;;;;;;;;;;23.90;67.50;;;;;;5133540;27;19931;-58
2021/07/20 03:43:22;;;;;;;;;;;23.90;67.30;;;;;;5134668;27;19924;-58
2021/07/20 03:45:50;;;;;;;;;;;23.90;67.70;;;;;;5133208;27;20332;-57
2021/07/20 03:48:41;;;;;;;;;;;23.90;67.60;;;;;;5133110;27;19924;-58
2021/07/20 03:51:08;;;;;;;;;;;24.00;67.50;;;;;;5133215;27;20375;-58
2021/07/20 03:53:35;;;;;;;;;;;23.90;67.40;;;;;;5132916;27;19928;-57
2021/07/20 03:56:03;;;;;;;;;;;24.00;67.70;;;;;;5134368;27;19976;-57
2021/07/20 03:58:33;;;;;;;;;;;24.00;67.80;;;;;;5133159;27;19949;-57
2021/07/20 04:01:00;;;;;;;;;;;23.90;67.50;;;;;;5115309;27;19923;-57
2021/07/20 04:03:29;;;;;;;;;;;23.90;67.50;;;;;;5134138;27;19931;-58
2021/07/20 04:06:01;;;;;;;;;;;23.90;67.70;;;;;;5134400;27;19923;-57
2021/07/20 04:08:29;;;;;;;;;;;23.90;67.40;;;;;;5133948;27;19977;-58
2021/07/20 04:10:57;;;;;;;;;;;23.90;67.40;;;;;;5134181;27;19924;-58
2021/07/20 04:13:25;;;;;;;;;;;23.90;67.40;;;;;;5116062;27;19928;-57
2021/07/20 04:16:04;;;;;;;;;;;23.90;67.70;;;;;;5133848;27;19998;-57
2021/07/20 04:18:31;;;;;;;;;;;24.00;67.70;;;;;;5116331;27;19924;-57
2021/07/20 04:21:04;;;;;;;;;;;23.90;67.40;;;;;;5117199;27;20375;-57
2021/07/20 04:23:31;;;;;;;;;;;24.00;67.40;;;;;;5130080;27;19924;-57
2021/07/20 04:25:59;;;;;;;;;;;23.90;67.30;;;;;;5133856;27;20435;-58
2021/07/20 04:28:27;;;;;;;;;;;23.90;67.10;;;;;;5131512;27;19976;-57
2021/07/20 04:30:54;;;;;;;;;;;24.00;67.40;;;;;;5132794;27;20310;-57
2021/07/20 04:33:25;;;;;;;;;;;24.00;67.40;;;;;;5133745;27;20400;-57
2021/07/20 04:35:52;;;;;;;;;;;23.90;67.20;;;;;;5126714;27;19923;-58
2021/07/20 04:38:23;;;;;;;;;;;23.90;67.10;;;;;;5125745;27;19946;-57
2021/07/20 04:40:50;;;;;;;;;;;23.90;67.20;;;;;;5132527;27;19972;-57
2021/07/20 04:43:17;;;;;;;;;;;24.00;67.20;;;;;;5133938;27;19927;-58
2021/07/20 04:45:46;;;;;;;;;;;24.00;67.10;;;;;;5133846;27;19927;-58
2021/07/20 04:48:14;;;;;;;;;;;24.00;67.00;;;;;;5132726;27;20472;-58
2021/07/20 04:50:42;;;;;;;;;;;23.90;66.80;;;;;;5133678;27;19963;-57
2021/07/20 04:53:10;;;;;;;;;;;24.00;66.90;;;;;;5132762;27;19924;-58
2021/07/20 04:55:38;;;;;;;;;;;24.00;66.80;;;;;;5132362;27;19923;-57
2021/07/20 04:58:06;;;;;;;;;;;23.90;66.00;;;;;;5132098;28;19929;-58
2021/07/20 05:00:34;;;;;;;;;;;24.00;65.70;;;;;;5128760;28;19924;-57
2021/07/20 05:03:02;;;;;;;;;;;23.90;66.40;;;;;;5115308;28;20340;-58
2021/07/20 05:05:31;;;;;;;;;;;23.90;67.00;;;;;;5117922;28;19930;-57
2021/07/20 05:08:01;;;;;;;;;;;23.90;66.60;;;;;;5130600;28;20348;-58
2021/07/20 05:10:28;;;;;;;;;;;23.90;66.40;;;;;;5118476;28;20314;-58
2021/07/20 05:12:56;;;;;;;;;;;23.90;66.70;;;;;;5132119;28;19927;-58
2021/07/20 05:15:23;;;;;;;;;;;23.90;66.30;;;;;;5133411;28;19923;-58
2021/07/20 05:17:50;;;;;;;;;;;23.90;66.30;;;;;;5114385;28;19923;-58
2021/07/20 05:20:18;;;;;;;;;;;23.90;66.30;;;;;;5131306;28;20034;-58
2021/07/20 05:22:45;;;;;;;;;;;23.90;66.10;;;;;;5132730;28;20019;-58
2021/07/20 05:25:13;;;;;;;;;;;23.90;66.10;;;;;;5133369;28;19923;-58
2021/07/20 05:27:51;;;;;;;;;;;23.90;66.30;;;;;;5132368;28;19924;-58
2021/07/20 05:30:18;;;;;;;;;;;24.00;66.10;;;;;;5132569;28;19927;-58
2021/07/20 05:32:46;;;;;;;;;;;24.00;66.10;;;;;;5132872;28;20018;-58
2021/07/20 05:35:14;;;;;;;;;;;24.00;65.90;;;;;;5130520;27;19923;-58
2021/07/20 05:37:42;;;;;;;;;;;24.00;65.90;;;;;;5133379;27;20435;-59
2021/07/20 05:40:10;;;;;;;;;;;24.00;65.90;;;;;;5134424;27;19927;-59
2021/07/20 05:42:37;;;;;;;;;;;24.00;65.70;;;;;;5122788;27;19959;-58
2021/07/20 05:45:06;;;;;;;;;;;24.10;65.70;;;;;;5130944;27;19924;-59
2021/07/20 05:47:38;;;;;;;;;;;24.10;65.30;;;;;;5134330;27;19976;-59
2021/07/20 05:50:07;;;;;;;;;;;24.10;65.50;;;;;;5135348;27;19927;-58
2021/07/20 05:52:40;;;;;;;;;;;24.10;65.70;;;;;;5135763;27;20006;-59
2021/07/20 05:55:08;;;;;;;;;;;24.10;65.70;;;;;;5136599;27;19978;-59
2021/07/20 05:57:36;;;;;;;;;;;24.10;65.50;;;;;;5118294;27;19970;-59
2021/07/20 06:00:06;;;;;;;;;;;24.20;65.50;;;;;;5126606;27;19972;-58
2021/07/20 06:02:35;;;;;;;;;;;24.20;65.60;;;;;;5125527;27;19966;-59
2021/07/20 06:05:03;;;;;;;;;;;24.20;65.30;;;;;;5136626;27;19931;-58
2021/07/20 06:07:30;;;;;;;;;;;24.20;65.20;;;;;;5136706;27;20019;-59
2021/07/20 06:09:57;;;;;;;;;;;24.30;65.40;;;;;;5135609;27;19977;-59
2021/07/20 06:12:26;;;;;;;;;;;24.30;65.40;;;;;;5134431;27;19923;-59
2021/07/20 06:14:54;;;;;;;;;;;24.30;65.40;;;;;;5135213;27;19988;-59
2021/07/20 06:17:23;;;;;;;;;;;24.40;65.40;;;;;;5133292;27;19967;-59
2021/07/20 06:19:51;;;;;;;;;;;24.40;65.20;;;;;;5119551;27;19946;-57
2021/07/20 06:22:21;;;;;;;;;;;24.40;64.20;;;;;;5135019;27;19952;-59
2021/07/20 06:24:48;;;;;;;;;;;24.40;64.70;;;;;;5136238;27;19962;-59
2021/07/20 06:27:19;;;;;;;;;;;24.50;64.40;;;;;;5136321;27;20010;-59
2021/07/20 06:29:51;;;;;;;;;;;24.50;64.50;;;;;;5135633;27;19923;-57
2021/07/20 06:32:18;;;;;;;;;;;24.50;64.40;;;;;;5117214;27;20333;-57
2021/07/20 06:34:46;;;;;;;;;;;24.50;64.40;;;;;;5134032;27;19931;-58
2021/07/20 06:37:14;;;;;;;;;;;24.50;64.10;;;;;;5134593;27;19923;-58
2021/07/20 06:39:42;;;;;;;;;;;24.50;63.40;;;;;;5134991;27;20259;-57
2021/07/20 06:42:10;;;;;;;;;;;24.60;63.80;;;;;;5135134;27;19931;-58
2021/07/20 06:44:37;;;;;;;;;;;24.60;64.00;;;;;;5135773;27;19927;-57
2021/07/20 06:47:04;;;;;;;;;;;24.60;63.60;;;;;;5134855;27;20162;-57
2021/07/20 06:49:34;;;;;;;;;;;24.60;63.40;;;;;;5134188;27;19923;-58
2021/07/20 06:52:01;;;;;;;;;;;24.60;63.20;;;;;;5135983;27;19923;-58
2021/07/20 06:54:28;;;;;;;;;;;24.60;63.00;;;;;;5122413;27;20398;-58
2021/07/20 06:56:55;;;;;;;;;;;24.70;63.30;;;;;;5128268;27;19927;-57
2021/07/20 06:59:24;;;;;;;;;;;24.70;62.70;;;;;;5135644;27;20018;-58
2021/07/20 07:01:51;;;;;;;;;;;24.70;62.50;;;;;;5134542;27;20002;-58
2021/07/20 07:04:18;;;;;;;;;;;24.70;62.70;;;;;;5134076;27;19923;-57
2021/07/20 07:06:47;;;;;;;;;;;24.70;62.90;;;;;;5135465;27;20018;-57
2021/07/20 07:09:14;;;;;;;;;;;24.70;62.50;;;;;;5135475;27;19970;-57
2021/07/20 07:11:42;;;;;;;;;;;24.70;62.10;;;;;;5132902;27;19982;-57
2021/07/20 07:14:10;;;;;;;;;;;24.70;61.90;;;;;;5134423;27;20345;-57
2021/07/20 07:16:38;;;;;;;;;;;24.70;61.90;;;;;;5132874;27;19924;-57
2021/07/20 07:19:06;;;;;;;;;;;24.70;62.10;;;;;;5130811;27;19928;-57
2021/07/20 07:21:33;;;;;;;;;;;24.70;61.90;;;;;;5100825;27;19969;-58
2021/07/20 07:24:01;;;;;;;;;;;24.80;61.80;;;;;;5133938;27;19976;-57
2021/07/20 07:26:28;;;;;;;;;;;24.80;61.50;;;;;;5134081;27;19924;-58
2021/07/20 07:28:55;;;;;;;;;;;24.80;61.70;;;;;;5132278;27;19927;-58
2021/07/20 07:31:22;;;;;;;;;;;24.80;61.20;;;;;;5133617;27;19967;-58
2021/07/20 07:33:51;;;;;;;;;;;24.80;61.20;;;;;;5133674;27;19963;-58
2021/07/20 07:36:19;;;;;;;;;;;24.80;61.80;;;;;;5124233;27;20323;-58
2021/07/20 07:38:46;;;;;;;;;;;24.80;61.70;;;;;;5134061;27;19953;-58
2021/07/20 07:41:16;;;;;;;;;;;24.80;61.70;;;;;;5116841;27;20014;-57
2021/07/20 07:43:44;;;;;;;;;;;24.80;61.70;;;;;;5134251;27;20316;-58
2021/07/20 07:46:11;;;;;;;;;;;24.90;61.60;;;;;;5133471;27;20435;-58
2021/07/20 07:48:39;;;;;;;;;;;24.90;61.70;;;;;;5119271;27;20328;-57
2021/07/20 07:51:07;;;;;;;;;;;24.90;61.60;;;;;;5114142;27;19928;-58
2021/07/20 07:53:35;;;;;;;;;;;24.90;61.70;;;;;;5132998;27;19977;-57
2021/07/20 07:56:03;;;;;;;;;;;24.90;61.70;;;;;;5120259;27;19945;-57
2021/07/20 07:58:31;;;;;;;;;;;24.90;61.40;;;;;;5128618;27;19963;-58
2021/07/20 08:01:00;;;;;;;;;;;25.00;61.50;;;;;;5122453;27;19924;-58
2021/07/20 08:03:28;;;;;;;;;;;25.00;61.40;;;;;;5127581;27;20483;-58
2021/07/20 08:05:56;;;;;;;;;;;25.00;62.20;;;;;;5133119;27;19927;-58
2021/07/20 08:08:24;;;;;;;;;;;25.00;60.80;;;;;;5132907;27;19931;-58
2021/07/20 08:10:51;;;;;;;;;;;25.00;61.20;;;;;;5132912;27;19976;-58
2021/07/20 08:13:19;;;;;;;;;;;25.10;62.30;;;;;;5133298;27;19992;-58
2021/07/20 08:15:49;;;;;;;;;;;25.10;61.20;;;;;;5134269;27;20324;-58
2021/07/20 08:18:21;;;;;;;;;;;25.10;61.20;;;;;;5132863;27;19927;-58
2021/07/20 08:20:52;;;;;;;;;;;25.20;60.80;;;;;;5127929;27;19923;-58
2021/07/20 08:23:19;;;;;;;;;;;25.20;60.60;;;;;;5120144;27;19982;-58
2021/07/20 08:25:47;;;;;;;;;;;25.30;61.40;;;;;;5132647;27;20006;-58
2021/07/20 08:28:28;;;;;;;;;;;25.30;60.50;;;;;;5132231;27;20320;-58
2021/07/20 08:31:02;;;;;;;;;;;25.30;59.10;;;;;;5126896;27;19931;-58
2021/07/20 08:33:47;;;;;;;;;;;25.30;59.80;;;;;;5122212;27;19923;-58
2021/07/20 08:36:15;;;;;;;;;;;25.30;59.40;;;;;;5131930;27;19966;-58
2021/07/20 08:38:44;;;;;;;;;;;25.30;59.10;;;;;;5132923;27;19923;-58
2021/07/20 08:41:14;;;;;;;;;;;25.30;59.40;;;;;;5132593;27;20042;-58
2021/07/20 08:44:10;;;;;;;;;;;25.30;59.50;;;;;;5128070;27;20072;-58
2021/07/20 08:46:37;;;;;;;;;;;25.30;59.30;;;;;;5122103;27;19952;-57
2021/07/20 08:49:04;;;;;;;;;;;25.30;59.20;;;;;;5132780;27;20300;-58
2021/07/20 08:51:37;;;;;;;;;;;25.30;59.40;;;;;;5133879;27;19923;-58
2021/07/20 08:54:09;;;;;;;;;;;25.30;58.90;;;;;;5132570;27;19977;-57
2021/07/20 08:56:44;;;;;;;;;;;25.30;59.20;;;;;;5114034;28;19959;-58
2021/07/20 08:59:15;;;;;;;;;;;25.30;58.10;;;;;;5130668;28;19974;-57
2021/07/20 09:01:42;;;;;;;;;;;25.20;57.90;;;;;;5133270;28;19923;-58
2021/07/20 09:04:11;;;;;;;;;;;25.20;57.60;;;;;;5132232;28;19963;-58
2021/07/20 09:06:43;;;;;;;;;;;25.20;58.50;;;;;;5131957;28;20454;-58
2021/07/20 09:09:14;;;;;;;;;;;25.10;58.60;;;;;;5133527;28;19988;-57
2021/07/20 09:11:43;;;;;;;;;;;25.10;57.70;;;;;;5134392;27;19949;-58
2021/07/20 09:14:29;;;;;;;;;;;25.10;58.40;;;;;;5136273;27;19965;-58
2021/07/20 09:17:01;;;;;;;;;;;25.20;56.50;;;;;;5135032;27;20010;-58
2021/07/20 09:19:33;;;;;;;;;;;25.10;57.20;;;;;;5136204;27;19977;-58
2021/07/20 09:22:05;;;;;;;;;;;25.20;57.70;;;;;;5137320;27;19984;-58
2021/07/20 09:24:34;;;;;;;;;;;25.10;56.70;;;;;;5136005;27;19989;-57
2021/07/20 09:27:13;;;;;;;;;;;25.20;56.20;;;;;;5135742;27;19931;-57
2021/07/20 09:30:02;;;;;;;;;;;25.20;57.20;;;;;;5119469;27;20423;-57
2021/07/20 09:32:53;;;;;;;;;;;25.20;56.50;;;;;;5120220;27;20390;-57
2021/07/20 09:35:26;;;;;;;;;;;25.30;56.70;;;;;;5119218;27;19955;-58
2021/07/20 09:37:53;;;;;;;;;;;25.40;56.90;;;;;;5124857;27;20024;-58
2021/07/20 09:40:32;;;;;;;;;;;25.40;56.60;;;;;;5137286;27;19971;-57
2021/07/20 09:43:07;;;;;;;;;;;25.40;56.50;;;;;;5136912;27;20006;-57
2021/07/20 09:45:45;;;;;;;;;;;25.50;56.70;;;;;;5137142;27;20071;-57
2021/07/20 09:48:30;;;;;;;;;;;25.50;56.80;;;;;;5135960;27;20022;-57
2021/07/20 09:51:10;;;;;;;;;;;25.60;56.70;;;;;;5136040;27;19951;-57
2021/07/20 09:53:43;;;;;;;;;;;25.60;56.80;;;;;;5124146;27;20012;-57
2021/07/20 09:56:32;;;;;;;;;;;25.60;56.00;;;;;;5129600;27;19924;-58
2021/07/20 09:59:17;;;;;;;;;;;25.60;56.00;;;;;;5135305;27;20435;-58
2021/07/20 10:01:54;;;;;;;;;;;25.70;56.40;;;;;;5135027;27;19930;-58
2021/07/20 10:04:53;;;;;;;;;;;25.70;55.50;;;;;;5136823;27;19924;-56
2021/07/20 10:07:26;;;;;;;;;;;25.60;55.10;;;;;;5034394;28;20421;-57
2021/07/20 10:09:57;;;;;;;;;;;25.70;55.60;;;;;;5032395;28;20313;-58
2021/07/20 10:12:29;;;;;;;;;;;25.70;55.70;;;;;;5032996;28;19925;-58
2021/07/20 10:14:59;;;;;;;;;;;25.70;55.50;;;;;;5034350;28;19961;-58
2021/07/20 10:17:26;;;;;;;;;;;25.70;56.00;;;;;;5034426;28;19933;-58
2021/07/20 10:19:59;;;;;;;;;;;25.80;56.20;;;;;;5032925;28;20377;-58
2021/07/20 10:22:29;;;;;;;;;;;25.80;56.00;;;;;;5032396;28;19933;-58
2021/07/20 10:25:01;;;;;;;;;;;25.80;56.20;;;;;;5032992;28;19971;-59
2021/07/20 10:27:33;;;;;;;;;;;25.90;56.30;;;;;;5031761;28;19925;-57
2021/07/20 10:30:07;;;;;;;;;;;25.90;56.40;;;;;;5031839;28;19925;-57
2021/07/20 10:32:34;;;;;;;;;;;25.90;56.30;;;;;;5032595;28;20313;-57
2021/07/20 10:35:03;;;;;;;;;;;25.90;55.80;;;;;;5031775;28;19925;-57
2021/07/20 10:37:36;;;;;;;;;;;25.90;56.20;;;;;;5032798;28;19932;-58
2021/07/20 10:40:09;;;;;;;;;;;25.90;56.70;;;;;;5032766;28;20147;-58
2021/07/20 10:42:42;;;;;;;;;;;25.90;56.40;;;;;;5069770;27;20456;-58
2021/07/20 10:45:11;;;;;;;;;;;25.90;56.00;;;;;;5134626;27;19976;-58
2021/07/20 10:47:50;;;;;;;;;;;25.90;56.60;;;;;;5136057;27;19923;-58
2021/07/20 10:50:27;;;;;;;;;;;25.80;56.40;;;;;;5135840;27;19930;-58
2021/07/20 10:53:03;;;;;;;;;;;25.80;56.50;;;;;;5136061;27;19994;-57
2021/07/20 10:55:39;;;;;;;;;;;25.80;56.30;;;;;;5135681;27;19923;-58
2021/07/20 10:58:19;;;;;;;;;;;25.80;56.70;;;;;;5134634;27;20366;-58
2021/07/20 11:01:02;;;;;;;;;;;25.80;56.20;;;;;;5135487;27;19931;-58
2021/07/20 11:03:34;;;;;;;;;;;25.80;56.70;;;;;;5134113;27;19930;-58
2021/07/20 11:06:02;;;;;;;;;;;25.80;56.70;;;;;;5135510;27;19931;-58
2021/07/20 11:08:31;;;;;;;;;;;25.80;56.90;;;;;;5134218;27;19968;-58
2021/07/20 11:10:59;;;;;;;;;;;25.80;56.40;;;;;;5134214;27;20026;-58
2021/07/20 11:13:30;;;;;;;;;;;25.90;56.70;;;;;;5122081;27;19924;-58
2021/07/20 11:15:59;;;;;;;;;;;25.90;56.40;;;;;;5130163;27;20015;-58
2021/07/20 11:18:29;;;;;;;;;;;25.90;56.10;;;;;;5117547;27;19928;-58
2021/07/20 11:21:00;;;;;;;;;;;26.00;56.60;;;;;;5134080;27;20327;-58
2021/07/20 11:23:36;;;;;;;;;;;26.10;56.10;;;;;;5135097;27;19924;-58
2021/07/20 11:26:04;;;;;;;;;;;26.10;55.80;;;;;;5123517;27;20454;-58
2021/07/20 11:28:31;;;;;;;;;;;26.10;55.70;;;;;;5117239;27;19945;-58
2021/07/20 11:31:01;;;;;;;;;;;26.10;55.30;;;;;;5125083;27;19928;-57
2021/07/20 11:33:33;;;;;;;;;;;26.10;55.10;;;;;;5124967;27;19927;-57
2021/07/20 11:36:13;;;;;;;;;;;26.10;55.50;;;;;;5108759;27;19966;-57
2021/07/20 11:38:43;;;;;;;;;;;26.10;55.60;;;;;;5135058;27;19927;-58
2021/07/20 11:41:20;;;;;;;;;;;26.10;55.80;;;;;;5133232;27;19981;-57
2021/07/20 11:43:50;;;;;;;;;;;26.10;55.90;;;;;;5134955;27;20051;-58
2021/07/20 11:46:21;;;;;;;;;;;26.10;56.00;;;;;;5125778;27;19967;-58
2021/07/20 11:48:53;;;;;;;;;;;26.10;55.90;;;;;;5122150;27;19924;-58
2021/07/20 11:51:22;;;;;;;;;;;26.00;56.10;;;;;;5131761;27;19973;-58
2021/07/20 11:53:59;;;;;;;;;;;26.00;56.20;;;;;;5133129;27;19923;-58
2021/07/20 11:56:27;;;;;;;;;;;26.00;56.20;;;;;;5132901;27;19980;-58
2021/07/20 11:59:12;;;;;;;;;;;26.00;56.00;;;;;;5133992;27;20291;-58
2021/07/20 12:01:46;;;;;;;;;;;26.00;56.00;;;;;;5132654;27;19970;-58
2021/07/20 12:04:13;;;;;;;;;;;26.00;56.00;;;;;;5131951;27;19927;-58
2021/07/20 12:06:54;;;;;;;;;;;26.00;55.70;;;;;;5134441;27;19924;-58
2021/07/20 12:09:27;;;;;;;;;;;26.00;55.50;;;;;;5126847;27;20367;-58
2021/07/20 12:11:55;;;;;;;;;;;26.00;56.00;;;;;;5123105;27;20585;-58
2021/07/20 12:14:23;;;;;;;;;;;25.90;55.90;;;;;;5134010;27;19945;-58
2021/07/20 12:16:52;;;;;;;;;;;25.90;55.90;;;;;;5133783;27;19924;-58
2021/07/20 12:19:25;;;;;;;;;;;25.90;55.20;;;;;;5132704;27;20007;-58
2021/07/20 12:21:52;;;;;;;;;;;25.90;55.60;;;;;;5132546;27;20034;-58
2021/07/20 12:24:22;;;;;;;;;;;25.90;54.80;;;;;;5133373;27;20347;-58
2021/07/20 12:26:49;;;;;;;;;;;25.90;55.60;;;;;;5134114;27;19997;-58
2021/07/20 12:29:17;;;;;;;;;;;25.80;55.10;;;;;;5132167;27;20432;-58
2021/07/20 12:31:47;;;;;;;;;;;25.80;55.00;;;;;;5134006;27;19963;-58
2021/07/20 12:34:14;;;;;;;;;;;25.80;55.00;;;;;;5132721;27;20016;-58
2021/07/20 12:36:43;;;;;;;;;;;25.80;54.70;;;;;;5133353;27;19963;-58
2021/07/20 12:39:11;;;;;;;;;;;25.80;54.70;;;;;;5116246;27;20378;-58
2021/07/20 12:41:40;;;;;;;;;;;25.70;54.60;;;;;;5131819;27;19923;-58
2021/07/20 12:44:31;;;;;;;;;;;25.70;55.10;;;;;;5115500;27;19994;-58
2021/07/20 12:47:07;;;;;;;;;;;25.70;54.70;;;;;;5132915;27;20390;-58
2021/07/20 12:49:37;;;;;;;;;;;25.70;55.20;;;;;;5115974;27;19923;-58
2021/07/20 12:52:05;;;;;;;;;;;25.80;55.10;;;;;;5115151;27;19924;-58
2021/07/20 12:54:32;;;;;;;;;;;25.80;54.60;;;;;;5133240;27;19961;-58
2021/07/20 12:57:02;;;;;;;;;;;25.80;54.50;;;;;;5130542;27;21611;-58
2021/07/20 12:59:29;;;;;;;;;;;25.80;53.90;;;;;;5131944;27;19974;-58
2021/07/20 13:01:56;;;;;;;;;;;25.80;54.50;;;;;;5131891;28;19959;-58
2021/07/20 13:04:24;;;;;;;;;;;25.80;54.70;;;;;;5132694;28;20286;-58
2021/07/20 13:06:51;;;;;;;;;;;25.80;54.20;;;;;;5132255;28;19971;-57
2021/07/20 13:09:19;;;;;;;;;;;25.80;54.40;;;;;;5133245;28;19924;-57
2021/07/20 13:11:46;;;;;;;;;;;25.80;54.70;;;;;;5131942;28;19927;-58
2021/07/20 13:14:13;;;;;;;;;;;25.80;54.00;;;;;;5133405;28;19923;-57
2021/07/20 13:16:41;;;;;;;;;;;25.80;54.60;;;;;;5131747;28;20002;-57
2021/07/20 13:19:09;;;;;;;;;;;25.80;53.80;;;;;;5120770;28;20010;-57
2021/07/20 13:21:40;;;;;;;;;;;25.90;54.30;;;;;;5126347;28;20406;-58
2021/07/20 13:24:07;;;;;;;;;;;25.80;53.90;;;;;;5130659;28;20374;-58
2021/07/20 13:26:35;;;;;;;;;;;25.90;54.40;;;;;;5133174;28;19927;-58
2021/07/20 13:29:03;;;;;;;;;;;25.90;54.50;;;;;;5124969;28;19931;-58
2021/07/20 13:31:35;;;;;;;;;;;25.90;54.40;;;;;;5114767;28;20414;-57
2021/07/20 13:34:03;;;;;;;;;;;25.90;54.30;;;;;;5116675;28;19967;-58
2021/07/20 13:36:31;;;;;;;;;;;25.90;54.40;;;;;;5123833;28;19963;-58
2021/07/20 13:38:58;;;;;;;;;;;25.90;54.10;;;;;;5132126;28;20039;-57
2021/07/20 13:41:26;;;;;;;;;;;25.90;54.20;;;;;;5133066;28;19971;-57
2021/07/20 13:43:54;;;;;;;;;;;25.90;54.40;;;;;;5132097;28;19930;-57
2021/07/20 13:46:22;;;;;;;;;;;25.90;54.40;;;;;;5131901;28;19923;-57
2021/07/20 13:48:49;;;;;;;;;;;25.90;53.80;;;;;;5131898;28;19932;-58
2021/07/20 13:51:19;;;;;;;;;;;25.90;53.90;;;;;;5131747;28;19924;-56
2021/07/20 13:53:53;;;;;;;;;;;25.90;53.10;;;;;;5130682;28;19931;-58
2021/07/20 13:56:25;;;;;;;;;;;26.00;53.80;;;;;;5130705;27;19930;-57
2021/07/20 13:58:53;;;;;;;;;;;26.00;53.70;;;;;;5116090;27;19974;-58
2021/07/20 14:01:20;;;;;;;;;;;26.00;53.70;;;;;;5135787;27;20479;-58
2021/07/20 14:03:48;;;;;;;;;;;26.00;53.60;;;;;;5135308;27;19923;-57
2021/07/20 14:06:16;;;;;;;;;;;26.00;53.60;;;;;;5136715;27;20046;-58
2021/07/20 14:08:43;;;;;;;;;;;26.00;53.50;;;;;;5136797;27;19971;-57
2021/07/20 14:11:10;;;;;;;;;;;26.00;53.30;;;;;;5119849;27;20325;-58
2021/07/20 14:13:38;;;;;;;;;;;26.00;52.50;;;;;;5134640;27;20050;-57
2021/07/20 14:16:05;;;;;;;;;;;26.00;52.30;;;;;;5101560;28;19931;-58
2021/07/20 14:18:33;;;;;;;;;;;26.00;53.10;;;;;;5118773;27;20371;-58
2021/07/20 14:21:00;;;;;;;;;;;26.00;53.00;;;;;;5113614;27;20271;-57
2021/07/20 14:23:27;;;;;;;;;;;26.00;53.00;;;;;;5124030;27;19928;-57
2021/07/20 14:25:54;;;;;;;;;;;26.00;52.50;;;;;;5130858;27;19924;-57
2021/07/20 14:28:25;;;;;;;;;;;26.00;52.50;;;;;;5134634;27;19923;-57
2021/07/20 14:30:53;;;;;;;;;;;26.00;52.00;;;;;;5134917;27;19923;-58
2021/07/20 14:33:21;;;;;;;;;;;26.00;51.90;;;;;;5135051;27;20006;-58